Lodz, Poland
Current Conditions -  °F | °C
As of 1:00 PM on Wednesday 26 Nov 2014 (Local Time) from EPLL Reporting Station
Haze Haze  
Wind Chill: 41°   Ceiling: 600
Heat Index: 41°   Visibility: 2.8mi
Dew Point: 39°   Wind: 2mph
Humidity: 93%   Direction: NA
Pressure: 30.27"   Gusts: NA
Location:  51.77°N, 19.46°E
Report Text: EPLL 261100Z VRB02KT 4500 BR BKN006 05/04 Q1025
Loading
Personal Weather Stations






























Interactive Weather Map New forecast layout! Learn more

10-Day Weather Forecast

Advertisements
Track Severe Weather on mobile